sensor_id;sensor_type;location;lat;lon;timestamp;pressure;altitude;pressure_sealevel;temperature;humidity
70968;BME280;58629;48.808;8.820;2023-07-29T00:01:17;96705.25;;;16.19;100.00
70968;BME280;58629;48.808;8.820;2023-07-29T00:03:43;96714.44;;;16.18;100.00
70968;BME280;58629;48.808;8.820;2023-07-29T00:06:09;96705.72;;;16.18;100.00
70968;BME280;58629;48.808;8.820;2023-07-29T00:08:35;96702.59;;;16.19;100.00
70968;BME280;58629;48.808;8.820;2023-07-29T00:11:00;96710.13;;;16.21;100.00
70968;BME280;58629;48.808;8.820;2023-07-29T00:13:25;96704.03;;;16.20;100.00
70968;BME280;58629;48.808;8.820;2023-07-29T00:15:54;96710.31;;;16.17;100.00
70968;BME280;58629;48.808;8.820;2023-07-29T00:18:20;96704.69;;;16.15;100.00
70968;BME280;58629;48.808;8.820;2023-07-29T00:20:45;96706.88;;;16.17;100.00
70968;BME280;58629;48.808;8.820;2023-07-29T00:23:10;96706.44;;;16.18;100.00
70968;BME280;58629;48.808;8.820;2023-07-29T00:25:36;96707.63;;;16.17;100.00
70968;BME280;58629;48.808;8.820;2023-07-29T00:28:01;96707.63;;;16.17;100.00
70968;BME280;58629;48.808;8.820;2023-07-29T00:30:26;96707.63;;;16.17;100.00
70968;BME280;58629;48.808;8.820;2023-07-29T00:32:52;96705.72;;;16.18;100.00
70968;BME280;58629;48.808;8.820;2023-07-29T00:35:17;96695.75;;;16.18;100.00
70968;BME280;58629;48.808;8.820;2023-07-29T00:37:43;96693.53;;;16.17;100.00
70968;BME280;58629;48.808;8.820;2023-07-29T00:40:14;96692.50;;;16.14;100.00
70968;BME280;58629;48.808;8.820;2023-07-29T00:42:40;96695.91;;;16.15;100.00
70968;BME280;58629;48.808;8.820;2023-07-29T00:45:06;96703.63;;;16.13;100.00
70968;BME280;58629;48.808;8.820;2023-07-29T00:47:33;96692.97;;;16.13;100.00
70968;BME280;58629;48.808;8.820;2023-07-29T00:49:58;96692.22;;;16.12;100.00
70968;BME280;58629;48.808;8.820;2023-07-29T00:52:23;96689.09;;;16.14;100.00
70968;BME280;58629;48.808;8.820;2023-07-29T00:54:49;96683.31;;;16.15;100.00
70968;BME280;58629;48.808;8.820;2023-07-29T00:57:15;96675.75;;;16.14;100.00
70968;BME280;58629;48.808;8.820;2023-07-29T00:59:41;96678.25;;;16.17;100.00
70968;BME280;58629;48.808;8.820;2023-07-29T01:02:07;96677.03;;;16.18;100.00
70968;BME280;58629;48.808;8.820;2023-07-29T01:04:33;96676.63;;;16.20;100.00
70968;BME280;58629;48.808;8.820;2023-07-29T01:09:47;96673.03;;;16.23;100.00
70968;BME280;58629;48.808;8.820;2023-07-29T01:12:22;96669.59;;;16.22;100.00
70968;BME280;58629;48.808;8.820;2023-07-29T01:15:01;96673.03;;;16.23;100.00
70968;BME280;58629;48.808;8.820;2023-07-29T01:17:33;96674.94;;;16.22;100.00
70968;BME280;58629;48.808;8.820;2023-07-29T01:20:09;96670.34;;;16.23;100.00
70968;BME280;58629;48.808;8.820;2023-07-29T01:22:37;96671.84;;;16.24;100.00
70968;BME280;58629;48.808;8.820;2023-07-29T01:25:03;96677.19;;;16.24;100.00
70968;BME280;58629;48.808;8.820;2023-07-29T01:27:29;96672.28;;;16.22;100.00
70968;BME280;58629;48.808;8.820;2023-07-29T01:29:55;96664.25;;;16.22;100.00
70968;BME280;58629;48.808;8.820;2023-07-29T01:32:54;96663.97;;;16.20;100.00
70968;BME280;58629;48.808;8.820;2023-07-29T01:35:31;96664.25;;;16.22;100.00
70968;BME280;58629;48.808;8.820;2023-07-29T01:38:17;96661.16;;;16.24;100.00
70968;BME280;58629;48.808;8.820;2023-07-29T01:40:44;96658.47;;;16.24;100.00
70968;BME280;58629;48.808;8.820;2023-07-29T01:43:10;96651.19;;;16.24;100.00
70968;BME280;58629;48.808;8.820;2023-07-29T01:45:36;96646.59;;;16.25;100.00
70968;BME280;58629;48.808;8.820;2023-07-29T01:48:05;96652.09;;;16.21;100.00
70968;BME280;58629;48.808;8.820;2023-07-29T01:50:30;96653.28;;;16.20;100.00
70968;BME280;58629;48.808;8.820;2023-07-29T01:52:57;96653.00;;;16.18;100.00
70968;BME280;58629;48.808;8.820;2023-07-29T01:55:22;96653.16;;;16.15;100.00
70968;BME280;58629;48.808;8.820;2023-07-29T01:57:48;96651.25;;;16.15;100.00
70968;BME280;58629;48.808;8.820;2023-07-29T02:00:13;96649.03;;;16.14;100.00
70968;BME280;58629;48.808;8.820;2023-07-29T02:02:38;96649.47;;;16.12;100.00
70968;BME280;58629;48.808;8.820;2023-07-29T02:05:04;96649.19;;;16.10;100.00
70968;BME280;58629;48.808;8.820;2023-07-29T02:07:30;96649.00;;;15.90;100.00
70968;BME280;58629;48.808;8.820;2023-07-29T02:09:55;96633.13;;;15.87;100.00
70968;BME280;58629;48.808;8.820;2023-07-29T02:12:20;96642.81;;;15.84;100.00
70968;BME280;58629;48.808;8.820;2023-07-29T02:14:46;96644.44;;;15.82;100.00
70968;BME280;58629;48.808;8.820;2023-07-29T02:17:11;96636.25;;;15.85;100.00
70968;BME280;58629;48.808;8.820;2023-07-29T02:19:36;96645.31;;;15.88;100.00
70968;BME280;58629;48.808;8.820;2023-07-29T02:22:02;96644.09;;;15.89;100.00
70968;BME280;58629;48.808;8.820;2023-07-29T02:24:27;96634.44;;;15.91;100.00
70968;BME280;58629;48.808;8.820;2023-07-29T02:26:53;96639.03;;;15.91;100.00
70968;BME280;58629;48.808;8.820;2023-07-29T02:29:18;96635.66;;;15.90;100.00
70968;BME280;58629;48.808;8.820;2023-07-29T02:31:43;96642.00;;;15.93;100.00
70968;BME280;58629;48.808;8.820;2023-07-29T02:34:09;96640.81;;;15.94;100.00
70968;BME280;58629;48.808;8.820;2023-07-29T02:36:34;96644.69;;;15.93;100.00
70968;BME280;58629;48.808;8.820;2023-07-29T02:39:00;96641.13;;;15.96;100.00
70968;BME280;58629;48.808;8.820;2023-07-29T02:41:25;96644.06;;;15.98;100.00
70968;BME280;58629;48.808;8.820;2023-07-29T02:43:50;96642.59;;;15.97;100.00
70968;BME280;58629;48.808;8.820;2023-07-29T02:46:16;96634.13;;;15.98;100.00
70968;BME280;58629;48.808;8.820;2023-07-29T02:48:43;96627.59;;;15.99;100.00
70968;BME280;58629;48.808;8.820;2023-07-29T02:51:09;96632.25;;;15.90;100.00
70968;BME280;58629;48.808;8.820;2023-07-29T02:53:34;96622.31;;;15.90;100.00
70968;BME280;58629;48.808;8.820;2023-07-29T02:56:02;96624.22;;;15.90;100.00
70968;BME280;58629;48.808;8.820;2023-07-29T02:58:28;96619.63;;;15.90;100.00
70968;BME280;58629;48.808;8.820;2023-07-29T03:00:53;96621.09;;;15.91;100.00
70968;BME280;58629;48.808;8.820;2023-07-29T03:03:18;96616.78;;;15.94;100.00
70968;BME280;58629;48.808;8.820;2023-07-29T03:05:44;96614.41;;;15.96;100.00
70968;BME280;58629;48.808;8.820;2023-07-29T03:08:10;96616.06;;;15.93;100.00
70968;BME280;58629;48.808;8.820;2023-07-29T03:10:35;96614.31;;;15.90;100.00
70968;BME280;58629;48.808;8.820;2023-07-29T03:13:01;96609.38;;;15.89;100.00
70968;BME280;58629;48.808;8.820;2023-07-29T03:15:26;96606.00;;;15.88;100.00
70968;BME280;58629;48.808;8.820;2023-07-29T03:17:52;96618.88;;;15.90;100.00
70968;BME280;58629;48.808;8.820;2023-07-29T03:20:17;96613.38;;;15.93;100.00
70968;BME280;58629;48.808;8.820;2023-07-29T03:22:44;96610.25;;;15.95;100.00
70968;BME280;58629;48.808;8.820;2023-07-29T03:25:09;96598.69;;;15.98;100.00
70968;BME280;58629;48.808;8.820;2023-07-29T03:27:34;96600.41;;;16.01;100.00
70968;BME280;58629;48.808;8.820;2023-07-29T03:30:02;96600.59;;;15.97;100.00
70968;BME280;58629;48.808;8.820;2023-07-29T03:32:27;96603.56;;;15.99;100.00
70968;BME280;58629;48.808;8.820;2023-07-29T03:34:53;96609.97;;;15.93;100.00
70968;BME280;58629;48.808;8.820;2023-07-29T03:37:19;96610.72;;;15.93;100.00
70968;BME280;58629;48.808;8.820;2023-07-29T03:39:45;96611.44;;;15.94;100.00
70968;BME280;58629;48.808;8.820;2023-07-29T03:42:10;96607.88;;;15.97;100.00
70968;BME280;58629;48.808;8.820;2023-07-29T03:44:35;96608.91;;;15.99;100.00
70968;BME280;58629;48.808;8.820;2023-07-29T03:47:01;96611.84;;;16.01;100.00
70968;BME280;58629;48.808;8.820;2023-07-29T03:49:26;96613.34;;;16.02;100.00
70968;BME280;58629;48.808;8.820;2023-07-29T03:51:51;96613.63;;;16.04;100.00
70968;BME280;58629;48.808;8.820;2023-07-29T03:54:17;96604.41;;;16.05;100.00
70968;BME280;58629;48.808;8.820;2023-07-29T03:56:42;96595.66;;;16.05;100.00
70968;BME280;58629;48.808;8.820;2023-07-29T03:59:07;96590.78;;;16.03;100.00
70968;BME280;58629;48.808;8.820;2023-07-29T04:01:32;96588.09;;;16.03;100.00
70968;BME280;58629;48.808;8.820;2023-07-29T04:03:58;96582.75;;;16.03;100.00
70968;BME280;58629;48.808;8.820;2023-07-29T04:06:24;96582.00;;;16.03;100.00
70968;BME280;58629;48.808;8.820;2023-07-29T04:08:50;96590.03;;;16.03;100.00
70968;BME280;58629;48.808;8.820;2023-07-29T04:11:15;96597.31;;;16.02;100.00
70968;BME280;58629;48.808;8.820;2023-07-29T04:13:40;96612.13;;;16.03;100.00
70968;BME280;58629;48.808;8.820;2023-07-29T04:16:06;96603.38;;;16.03;100.00
70968;BME280;58629;48.808;8.820;2023-07-29T04:18:32;96601.00;;;16.05;100.00
70968;BME280;58629;48.808;8.820;2023-07-29T04:20:57;96619.41;;;16.03;100.00
70968;BME280;58629;48.808;8.820;2023-07-29T04:23:22;96626.69;;;16.02;100.00
70968;BME280;58629;48.808;8.820;2023-07-29T04:25:48;96632.31;;;16.04;100.00
70968;BME280;58629;48.808;8.820;2023-07-29T04:28:15;96623.69;;;16.09;100.00
70968;BME280;58629;48.808;8.820;2023-07-29T04:30:40;96640.75;;;16.12;100.00
70968;BME280;58629;48.808;8.820;2023-07-29T04:33:05;96641.03;;;16.14;100.00
70968;BME280;58629;48.808;8.820;2023-07-29T04:35:31;96629.88;;;16.15;100.00
70968;BME280;58629;48.808;8.820;2023-07-29T04:37:56;96614.41;;;16.19;100.00
70968;BME280;58629;48.808;8.820;2023-07-29T04:40:21;96603.28;;;16.21;100.00
70968;BME280;58629;48.808;8.820;2023-07-29T04:42:48;96608.91;;;16.23;100.00
70968;BME280;58629;48.808;8.820;2023-07-29T04:45:13;96595.38;;;16.26;100.00
70968;BME280;58629;48.808;8.820;2023-07-29T04:47:39;96595.22;;;16.30;100.00
70968;BME280;58629;48.808;8.820;2023-07-29T04:50:04;96599.63;;;16.33;100.00
70968;BME280;58629;48.808;8.820;2023-07-29T04:52:31;96594.28;;;16.33;100.00
70968;BME280;58629;48.808;8.820;2023-07-29T04:54:56;96596.50;;;16.34;100.00
70968;BME280;58629;48.808;8.820;2023-07-29T04:57:21;96593.38;;;16.36;100.00
70968;BME280;58629;48.808;8.820;2023-07-29T04:59:47;96590.91;;;16.47;100.00
70968;BME280;58629;48.808;8.820;2023-07-29T05:02:12;96593.16;;;16.48;100.00
70968;BME280;58629;48.808;8.820;2023-07-29T05:04:37;96589.13;;;16.53;100.00
70968;BME280;58629;48.808;8.820;2023-07-29T05:07:03;96585.53;;;16.56;100.00
70968;BME280;58629;48.808;8.820;2023-07-29T05:09:28;96586.03;;;16.69;100.00
70968;BME280;58629;48.808;8.820;2023-07-29T05:11:53;96581.84;;;16.68;100.00
70968;BME280;58629;48.808;8.820;2023-07-29T05:14:19;96583.81;;;16.68;100.00
70968;BME280;58629;48.808;8.820;2023-07-29T05:16:44;96586.50;;;16.68;100.00
70968;BME280;58629;48.808;8.820;2023-07-29T05:19:09;96574.59;;;16.69;100.00
70968;BME280;58629;48.808;8.820;2023-07-29T05:21:35;96581.41;;;16.70;100.00
70968;BME280;58629;48.808;8.820;2023-07-29T05:24:00;96582.13;;;16.70;100.00
70968;BME280;58629;48.808;8.820;2023-07-29T05:26:25;96585.56;;;16.71;100.00
70968;BME280;58629;48.808;8.820;2023-07-29T05:28:51;96592.84;;;16.70;100.00
70968;BME280;58629;48.808;8.820;2023-07-29T05:31:16;96597.91;;;16.68;100.00
70968;BME280;58629;48.808;8.820;2023-07-29T05:33:41;96600.69;;;16.74;100.00
70968;BME280;58629;48.808;8.820;2023-07-29T05:36:07;96605.41;;;16.79;100.00
70968;BME280;58629;48.808;8.820;2023-07-29T05:38:32;96598.50;;;16.87;100.00
70968;BME280;58629;48.808;8.820;2023-07-29T05:40:57;96613.44;;;16.93;100.00
70968;BME280;58629;48.808;8.820;2023-07-29T05:43:26;96595.00;;;16.95;100.00
70968;BME280;58629;48.808;8.820;2023-07-29T05:45:52;96588.25;;;17.00;100.00
70968;BME280;58629;48.808;8.820;2023-07-29T05:48:18;96598.78;;;17.03;100.00
70968;BME280;58629;48.808;8.820;2023-07-29T05:50:43;96591.28;;;17.07;100.00
70968;BME280;58629;48.808;8.820;2023-07-29T05:53:08;96595.25;;;17.12;100.00
70968;BME280;58629;48.808;8.820;2023-07-29T05:55:34;96591.41;;;17.13;100.00
70968;BME280;58629;48.808;8.820;2023-07-29T05:57:59;96590.94;;;17.14;100.00
70968;BME280;58629;48.808;8.820;2023-07-29T06:00:24;96593.16;;;17.16;100.00
70968;BME280;58629;48.808;8.820;2023-07-29T06:02:50;96593.88;;;17.16;100.00
70968;BME280;58629;48.808;8.820;2023-07-29T06:05:15;96595.06;;;17.15;100.00
70968;BME280;58629;48.808;8.820;2023-07-29T06:07:40;96588.06;;;17.18;100.00
70968;BME280;58629;48.808;8.820;2023-07-29T06:10:09;96595.91;;;17.21;100.00
70968;BME280;58629;48.808;8.820;2023-07-29T06:12:37;96592.50;;;17.21;100.00
70968;BME280;58629;48.808;8.820;2023-07-29T06:15:02;96602.00;;;17.22;100.00
70968;BME280;58629;48.808;8.820;2023-07-29T06:17:28;96608.84;;;17.23;100.00
70968;BME280;58629;48.808;8.820;2023-07-29T06:19:53;96616.69;;;17.26;100.00
70968;BME280;58629;48.808;8.820;2023-07-29T06:22:18;96620.09;;;17.27;100.00
70968;BME280;58629;48.808;8.820;2023-07-29T06:24:43;96628.41;;;17.29;100.00
70968;BME280;58629;48.808;8.820;2023-07-29T06:27:09;96630.81;;;17.27;100.00
70968;BME280;58629;48.808;8.820;2023-07-29T06:29:34;96630.34;;;17.28;100.00
70968;BME280;58629;48.808;8.820;2023-07-29T06:31:59;96623.06;;;17.29;100.00
70968;BME280;58629;48.808;8.820;2023-07-29T06:34:25;96625.81;;;17.34;100.00
70968;BME280;58629;48.808;8.820;2023-07-29T06:36:50;96620.91;;;17.48;100.00
70968;BME280;58629;48.808;8.820;2023-07-29T06:39:16;96619.16;;;17.45;100.00
70968;BME280;58629;48.808;8.820;2023-07-29T06:41:41;96619.88;;;17.45;100.00
70968;BME280;58629;48.808;8.820;2023-07-29T06:44:06;96637.53;;;17.52;100.00
70968;BME280;58629;48.808;8.820;2023-07-29T06:46:32;96640.69;;;17.50;100.00
70968;BME280;58629;48.808;8.820;2023-07-29T06:48:57;96648.72;;;17.50;100.00
70968;BME280;58629;48.808;8.820;2023-07-29T06:51:22;96646.31;;;17.52;100.00
70968;BME280;58629;48.808;8.820;2023-07-29T06:53:48;96649.00;;;17.52;100.00
70968;BME280;58629;48.808;8.820;2023-07-29T06:56:13;96650.47;;;17.53;100.00
70968;BME280;58629;48.808;8.820;2023-07-29T06:58:38;96637.63;;;17.57;100.00
70968;BME280;58629;48.808;8.820;2023-07-29T07:01:04;96639.84;;;17.59;100.00
70968;BME280;58629;48.808;8.820;2023-07-29T07:03:30;96645.66;;;17.57;100.00
70968;BME280;58629;48.808;8.820;2023-07-29T07:05:55;96647.91;;;17.59;100.00
70968;BME280;58629;48.808;8.820;2023-07-29T07:08:20;96641.59;;;17.62;100.00
70968;BME280;58629;48.808;8.820;2023-07-29T07:10:49;96635.06;;;17.63;100.00
70968;BME280;58629;48.808;8.820;2023-07-29T07:13:14;96638.34;;;17.72;100.00
70968;BME280;58629;48.808;8.820;2023-07-29T07:15:39;96633.91;;;17.84;100.00
70968;BME280;58629;48.808;8.820;2023-07-29T07:18:05;96636.56;;;17.98;100.00
70968;BME280;58629;48.808;8.820;2023-07-29T07:20:30;96646.41;;;18.07;100.00
70968;BME280;58629;48.808;8.820;2023-07-29T07:22:55;96647.75;;;18.17;100.00
70968;BME280;58629;48.808;8.820;2023-07-29T07:25:21;96637.84;;;18.23;100.00
70968;BME280;58629;48.808;8.820;2023-07-29T07:27:47;96643.75;;;18.27;100.00
70968;BME280;58629;48.808;8.820;2023-07-29T07:30:13;96638.19;;;18.31;100.00
70968;BME280;58629;48.808;8.820;2023-07-29T07:32:39;96643.59;;;18.36;100.00
70968;BME280;58629;48.808;8.820;2023-07-29T07:35:04;96645.25;;;18.48;100.00
70968;BME280;58629;48.808;8.820;2023-07-29T07:37:30;96646.78;;;18.55;100.00
70968;BME280;58629;48.808;8.820;2023-07-29T07:39:55;96634.91;;;18.81;100.00
70968;BME280;58629;48.808;8.820;2023-07-29T07:42:21;96633.19;;;19.04;100.00
70968;BME280;58629;48.808;8.820;2023-07-29T07:44:46;96633.50;;;19.12;100.00
70968;BME280;58629;48.808;8.820;2023-07-29T07:47:11;96623.53;;;19.18;100.00
70968;BME280;58629;48.808;8.820;2023-07-29T07:49:36;96617.66;;;19.39;100.00
70968;BME280;58629;48.808;8.820;2023-07-29T07:52:02;96616.59;;;19.57;100.00
70968;BME280;58629;48.808;8.820;2023-07-29T07:54:27;96625.03;;;19.81;100.00
70968;BME280;58629;48.808;8.820;2023-07-29T07:56:52;96629.03;;;19.91;100.00
70968;BME280;58629;48.808;8.820;2023-07-29T07:59:18;96621.94;;;20.30;100.00
70968;BME280;58629;48.808;8.820;2023-07-29T08:01:43;96629.31;;;20.41;100.00
70968;BME280;58629;48.808;8.820;2023-07-29T08:04:08;96641.06;;;20.43;100.00
70968;BME280;58629;48.808;8.820;2023-07-29T08:06:34;96648.13;;;20.35;100.00
70968;BME280;58629;48.808;8.820;2023-07-29T08:09:00;96659.78;;;20.21;100.00
70968;BME280;58629;48.808;8.820;2023-07-29T08:11:26;96665.72;;;20.00;100.00
70968;BME280;58629;48.808;8.820;2023-07-29T08:13:51;96671.97;;;19.85;100.00
70968;BME280;58629;48.808;8.820;2023-07-29T08:16:17;96665.34;;;19.81;100.00
70968;BME280;58629;48.808;8.820;2023-07-29T08:18:42;96658.75;;;19.76;100.00
70968;BME280;58629;48.808;8.820;2023-07-29T08:21:07;96664.44;;;19.89;100.00
70968;BME280;58629;48.808;8.820;2023-07-29T08:23:34;96669.63;;;19.99;100.00
70968;BME280;58629;48.808;8.820;2023-07-29T08:26:01;96669.72;;;20.10;100.00
70968;BME280;58629;48.808;8.820;2023-07-29T08:28:31;96669.38;;;20.33;100.00
70968;BME280;58629;48.808;8.820;2023-07-29T08:30:57;96669.22;;;20.48;100.00
70968;BME280;58629;48.808;8.820;2023-07-29T08:33:22;96667.28;;;20.54;100.00
70968;BME280;58629;48.808;8.820;2023-07-29T08:35:48;96659.72;;;20.58;100.00
70968;BME280;58629;48.808;8.820;2023-07-29T08:38:14;96659.75;;;20.69;98.33
70968;BME280;58629;48.808;8.820;2023-07-29T08:40:45;96657.06;;;20.63;96.86
70968;BME280;58629;48.808;8.820;2023-07-29T08:43:12;96667.84;;;20.69;96.90
70968;BME280;58629;48.808;8.820;2023-07-29T08:45:39;96666.16;;;20.77;97.94
70968;BME280;58629;48.808;8.820;2023-07-29T08:48:08;96676.22;;;20.88;99.42
70968;BME280;58629;48.808;8.820;2023-07-29T08:50:36;96665.72;;;21.01;97.65
70968;BME280;58629;48.808;8.820;2023-07-29T08:53:04;96661.88;;;21.07;93.73
70968;BME280;58629;48.808;8.820;2023-07-29T08:55:30;96650.59;;;21.20;93.03
70968;BME280;58629;48.808;8.820;2023-07-29T08:57:57;96652.09;;;21.21;96.35
70968;BME280;58629;48.808;8.820;2023-07-29T09:00:23;96642.56;;;21.64;92.89
70968;BME280;58629;48.808;8.820;2023-07-29T09:02:48;96635.44;;;22.05;91.15
70968;BME280;58629;48.808;8.820;2023-07-29T09:05:14;96636.84;;;22.34;93.16
70968;BME280;58629;48.808;8.820;2023-07-29T09:07:40;96626.69;;;22.62;85.28
70968;BME280;58629;48.808;8.820;2023-07-29T09:10:08;96620.00;;;22.80;84.07
70968;BME280;58629;48.808;8.820;2023-07-29T09:12:35;96622.75;;;23.09;82.61
70968;BME280;58629;48.808;8.820;2023-07-29T09:15:01;96632.28;;;23.16;85.50
70968;BME280;58629;48.808;8.820;2023-07-29T09:17:26;96621.63;;;22.88;84.09
70968;BME280;58629;48.808;8.820;2023-07-29T09:19:55;96625.13;;;22.83;81.00
70968;BME280;58629;48.808;8.820;2023-07-29T09:22:21;96614.44;;;22.61;79.00
70968;BME280;58629;48.808;8.820;2023-07-29T09:24:47;96616.91;;;22.54;77.08
70968;BME280;58629;48.808;8.820;2023-07-29T09:27:24;96635.13;;;22.25;76.22
70968;BME280;58629;48.808;8.820;2023-07-29T09:29:49;96648.91;;;21.78;79.91
70968;BME280;58629;48.808;8.820;2023-07-29T09:32:21;96652.13;;;21.54;81.06
70968;BME280;58629;48.808;8.820;2023-07-29T09:34:47;96647.19;;;21.41;85.31
70968;BME280;58629;48.808;8.820;2023-07-29T09:37:23;96649.91;;;21.30;87.24
70968;BME280;58629;48.808;8.820;2023-07-29T09:39:49;96652.34;;;21.28;87.39
70968;BME280;58629;48.808;8.820;2023-07-29T09:42:19;96651.13;;;21.51;84.07
70968;BME280;58629;48.808;8.820;2023-07-29T09:44:45;96655.31;;;21.58;87.76
70968;BME280;58629;48.808;8.820;2023-07-29T09:47:19;96658.75;;;21.86;87.71
70968;BME280;58629;48.808;8.820;2023-07-29T09:49:45;96661.91;;;21.79;87.21
70968;BME280;58629;48.808;8.820;2023-07-29T09:52:10;96671.22;;;21.62;88.11
70968;BME280;58629;48.808;8.820;2023-07-29T09:54:36;96673.50;;;20.82;92.65
70968;BME280;58629;48.808;8.820;2023-07-29T09:57:02;96672.59;;;20.43;98.11
70968;BME280;58629;48.808;8.820;2023-07-29T09:59:28;96663.22;;;20.22;97.63
70968;BME280;58629;48.808;8.820;2023-07-29T10:01:53;96664.69;;;20.28;100.00
70968;BME280;58629;48.808;8.820;2023-07-29T10:04:19;96668.47;;;20.11;95.69
70968;BME280;58629;48.808;8.820;2023-07-29T10:06:45;96672.56;;;20.01;96.87
70968;BME280;58629;48.808;8.820;2023-07-29T10:09:12;96676.94;;;19.93;100.00
70968;BME280;58629;48.808;8.820;2023-07-29T10:11:37;96682.69;;;19.80;98.85
70968;BME280;58629;48.808;8.820;2023-07-29T10:14:04;96676.78;;;19.70;99.31
70968;BME280;58629;48.808;8.820;2023-07-29T10:16:29;96684.59;;;19.74;99.41
70968;BME280;58629;48.808;8.820;2023-07-29T10:18:56;96678.75;;;19.75;100.00
70968;BME280;58629;48.808;8.820;2023-07-29T10:21:22;96691.59;;;19.97;100.00
70968;BME280;58629;48.808;8.820;2023-07-29T10:23:49;96699.47;;;20.37;100.00
70968;BME280;58629;48.808;8.820;2023-07-29T10:26:19;96697.84;;;20.51;100.00
70968;BME280;58629;48.808;8.820;2023-07-29T10:28:47;96693.56;;;20.81;97.26
70968;BME280;58629;48.808;8.820;2023-07-29T10:31:13;96699.31;;;21.16;100.00
70968;BME280;58629;48.808;8.820;2023-07-29T10:33:41;96690.56;;;21.43;98.65
70968;BME280;58629;48.808;8.820;2023-07-29T10:36:08;96694.69;;;21.28;93.64
70968;BME280;58629;48.808;8.820;2023-07-29T10:38:34;96684.19;;;21.57;96.27
70968;BME280;58629;48.808;8.820;2023-07-29T10:40:59;96680.03;;;21.62;91.13
70968;BME280;58629;48.808;8.820;2023-07-29T10:43:32;96689.13;;;21.65;90.14
70968;BME280;58629;48.808;8.820;2023-07-29T10:46:14;96677.84;;;21.66;86.57
70968;BME280;58629;48.808;8.820;2023-07-29T10:48:43;96678.81;;;21.74;87.26
70968;BME280;58629;48.808;8.820;2023-07-29T10:51:30;96685.47;;;21.84;89.04
70968;BME280;58629;48.808;8.820;2023-07-29T10:54:04;96687.88;;;21.99;87.77
70968;BME280;58629;48.808;8.820;2023-07-29T10:56:35;96694.53;;;21.98;84.99
70968;BME280;58629;48.808;8.820;2023-07-29T11:01:56;96690.84;;;22.06;81.60
70968;BME280;58629;48.808;8.820;2023-07-29T11:04:29;96682.25;;;22.08;83.24
70968;BME280;58629;48.808;8.820;2023-07-29T11:09:54;96686.41;;;22.14;84.58
70968;BME280;58629;48.808;8.820;2023-07-29T11:15:25;96679.94;;;22.51;82.72
70968;BME280;58629;48.808;8.820;2023-07-29T11:18:01;96666.34;;;22.78;83.12
70968;BME280;58629;48.808;8.820;2023-07-29T11:20:33;96662.47;;;22.74;79.38
70968;BME280;58629;48.808;8.820;2023-07-29T11:23:00;96657.22;;;22.92;76.31
70968;BME280;58629;48.808;8.820;2023-07-29T11:25:27;96648.16;;;22.84;75.74
70968;BME280;58629;48.808;8.820;2023-07-29T11:27:54;96659.94;;;22.87;76.45
70968;BME280;58629;48.808;8.820;2023-07-29T11:30:20;96660.22;;;22.83;73.81
70968;BME280;58629;48.808;8.820;2023-07-29T11:32:46;96675.97;;;23.20;72.06
70968;BME280;58629;48.808;8.820;2023-07-29T11:35:17;96661.28;;;23.15;72.46
70968;BME280;58629;48.808;8.820;2023-07-29T11:37:44;96664.41;;;23.19;72.41
70968;BME280;58629;48.808;8.820;2023-07-29T11:40:13;96655.91;;;23.04;72.77
70968;BME280;58629;48.808;8.820;2023-07-29T11:42:40;96662.38;;;23.37;74.76
70968;BME280;58629;48.808;8.820;2023-07-29T11:45:06;96654.41;;;23.50;69.54
70968;BME280;58629;48.808;8.820;2023-07-29T11:47:32;96659.81;;;23.50;67.87
70968;BME280;58629;48.808;8.820;2023-07-29T11:50:06;96655.84;;;23.21;66.93
70968;BME280;58629;48.808;8.820;2023-07-29T11:52:36;96661.75;;;23.14;63.77
70968;BME280;58629;48.808;8.820;2023-07-29T11:55:03;96659.88;;;23.03;66.55
70968;BME280;58629;48.808;8.820;2023-07-29T11:57:30;96656.72;;;22.94;68.58
70968;BME280;58629;48.808;8.820;2023-07-29T11:59:56;96666.75;;;22.99;69.45
70968;BME280;58629;48.808;8.820;2023-07-29T12:02:23;96654.75;;;22.94;65.78
70968;BME280;58629;48.808;8.820;2023-07-29T12:04:49;96654.03;;;22.88;63.84
70968;BME280;58629;48.808;8.820;2023-07-29T12:07:17;96655.22;;;22.98;63.37
70968;BME280;58629;48.808;8.820;2023-07-29T12:09:43;96650.84;;;23.36;62.55
70968;BME280;58629;48.808;8.820;2023-07-29T12:12:08;96662.28;;;23.48;62.22
70968;BME280;58629;48.808;8.820;2023-07-29T12:14:34;96656.13;;;23.53;62.22
70968;BME280;58629;48.808;8.820;2023-07-29T12:17:01;96647.97;;;23.58;62.11
70968;BME280;58629;48.808;8.820;2023-07-29T12:19:35;96651.84;;;23.27;60.20
70968;BME280;58629;48.808;8.820;2023-07-29T12:22:04;96664.22;;;23.17;62.15
70968;BME280;58629;48.808;8.820;2023-07-29T12:24:31;96657.22;;;22.92;63.65
70968;BME280;58629;48.808;8.820;2023-07-29T12:26:57;96657.16;;;23.03;62.93
70968;BME280;58629;48.808;8.820;2023-07-29T12:29:22;96655.88;;;23.10;62.42
70968;BME280;58629;48.808;8.820;2023-07-29T12:31:48;96651.09;;;23.68;62.16
70968;BME280;58629;48.808;8.820;2023-07-29T12:34:18;96641.94;;;24.00;61.44
70968;BME280;58629;48.808;8.820;2023-07-29T12:36:48;96651.09;;;24.22;60.22
70968;BME280;58629;48.808;8.820;2023-07-29T12:41:47;96640.69;;;24.74;58.42
70968;BME280;58629;48.808;8.820;2023-07-29T12:44:12;96638.00;;;24.68;59.62
70968;BME280;58629;48.808;8.820;2023-07-29T12:46:37;96645.97;;;24.61;58.67
70968;BME280;58629;48.808;8.820;2023-07-29T12:49:03;96641.63;;;24.95;56.66
70968;BME280;58629;48.808;8.820;2023-07-29T12:51:28;96648.06;;;25.29;57.13
70968;BME280;58629;48.808;8.820;2023-07-29T12:53:54;96648.41;;;25.20;59.36
70968;BME280;58629;48.808;8.820;2023-07-29T12:56:19;96640.22;;;25.07;57.51
70968;BME280;58629;48.808;8.820;2023-07-29T12:58:45;96641.06;;;24.83;57.30
70968;BME280;58629;48.808;8.820;2023-07-29T13:01:10;96636.94;;;24.77;58.46
70968;BME280;58629;48.808;8.820;2023-07-29T13:03:38;96642.75;;;24.62;58.19